Jamestown, Pennsylvania
Current Conditions -  °F | °C
As of 7:53 AM on Thursday 30 Oct 2014 (Local Time) from KGKJ Reporting Station
Light Rain Light Rain  
Wind Chill: 42°   Ceiling: 2700
Heat Index: 42°   Visibility: 4mi
Dew Point: 40°   Wind: 0mph
Humidity: 92%   Direction: NA
Pressure: 30.06"   Gusts: NA
Location:  41.48°N, 80.44°W
Report Text: KGKJ 301153Z AUTO 00000KT 4SM -RA BR FEW020 BKN027 OVC035 06/04 A3006 RMK AO2 RAB23 SLP186 P0001 60003 70007 T00560044 10056 20050 51012 TSNO
Loading
Personal Weather Stations






























Interactive Weather Map
Tropical Storm Tracking
New forecast layout! Learn more

10-Day Weather Forecast

Advertisements
Track Severe Weather on mobile